Time;durP1;ratioP1;P1;durP2;ratioP2;P2;SDS_P1;SDS_P2;PMS_P1;PMS_P2;Temp;Humidity;BMP_temperature;BMP_pressure;BME280_temperature;BME280_humidity;BME280_pressure;Samples;Min_cycle;Max_cycle;Signal;HPM_P1;HPM_P2
2022/03/23 00:00:16;;;;;;;46.63;24.93;;;4.10;1.00;;;;;;5072530;28;20199;-84
2022/03/23 00:02:43;;;;;;;44.00;24.27;;;4.10;1.00;;;;;;5072228;28;20188;-83
2022/03/23 00:05:10;;;;;;;49.97;26.00;;;4.00;1.00;;;;;;5072848;28;20192;-83
2022/03/23 00:07:37;;;;;;;44.77;24.90;;;4.00;1.00;;;;;;5072197;28;20564;-83
2022/03/23 00:10:05;;;;;;;49.90;24.53;;;4.00;1.00;;;;;;5072358;28;20194;-83
2022/03/23 00:12:32;;;;;;;49.20;25.47;;;3.90;1.00;;;;;;5072314;28;20193;-83
2022/03/23 00:15:01;;;;;;;55.77;27.50;;;3.90;1.00;;;;;;5072739;28;20203;-83
2022/03/23 00:17:27;;;;;;;50.70;27.90;;;3.80;1.00;;;;;;5072448;28;20215;-84
2022/03/23 00:19:55;;;;;;;59.30;28.97;;;3.70;1.00;;;;;;5072368;28;20627;-84
2022/03/23 00:22:26;;;;;;;59.33;27.60;;;3.60;1.00;;;;;;5072636;28;20287;-83
2022/03/23 00:24:53;;;;;;;58.20;29.27;;;3.60;1.00;;;;;;5072489;28;20272;-82
2022/03/23 00:27:20;;;;;;;48.63;26.63;;;3.60;1.00;;;;;;5072469;28;20203;-83
2022/03/23 00:29:47;;;;;;;48.10;26.40;;;3.60;1.00;;;;;;5072205;28;20282;-84
2022/03/23 00:32:17;;;;;;;49.07;26.97;;;3.50;1.00;;;;;;5071848;28;20199;-83
2022/03/23 00:34:44;;;;;;;54.57;27.17;;;3.50;1.00;;;;;;5072128;28;20192;-83
2022/03/23 00:37:11;;;;;;;50.70;26.40;;;3.40;1.00;;;;;;5072315;28;20220;-83
2022/03/23 00:39:38;;;;;;;52.53;24.97;;;3.30;1.00;;;;;;5072312;28;20207;-83
2022/03/23 00:42:06;;;;;;;46.97;24.40;;;3.30;1.00;;;;;;5072322;28;20271;-83
2022/03/23 00:44:33;;;;;;;47.40;25.70;;;3.20;1.00;;;;;;5072323;28;20213;-83
2022/03/23 00:47:00;;;;;;;44.50;23.27;;;3.20;1.00;;;;;;5071988;28;20648;-83
2022/03/23 00:49:28;;;;;;;43.77;23.57;;;3.20;1.00;;;;;;5072531;28;20196;-83
2022/03/23 00:51:56;;;;;;;44.47;24.67;;;3.10;1.00;;;;;;5072629;28;20282;-83
2022/03/23 00:54:23;;;;;;;47.70;24.23;;;3.10;1.00;;;;;;5071892;28;20709;-83
2022/03/23 00:56:51;;;;;;;47.70;25.10;;;3.10;1.00;;;;;;5072178;28;20212;-83
2022/03/23 00:59:19;;;;;;;40.33;23.13;;;3.10;1.00;;;;;;5072024;28;20204;-83
2022/03/23 01:01:46;;;;;;;44.13;24.07;;;3.10;1.00;;;;;;5072173;28;20279;-83
2022/03/23 01:04:14;;;;;;;42.73;24.37;;;3.10;1.00;;;;;;5071963;28;20188;-83
2022/03/23 01:06:42;;;;;;;43.17;23.73;;;3.00;1.00;;;;;;5072164;28;20192;-82
2022/03/23 01:09:09;;;;;;;41.90;22.80;;;3.10;1.00;;;;;;5072065;28;20195;-82
2022/03/23 01:11:37;;;;;;;45.20;25.27;;;3.10;1.00;;;;;;5071672;28;20710;-83
2022/03/23 01:14:04;;;;;;;52.60;25.93;;;3.00;1.00;;;;;;5072025;28;20192;-83
2022/03/23 01:16:31;;;;;;;48.53;25.93;;;3.00;1.00;;;;;;5071808;28;20211;-83
2022/03/23 01:18:58;;;;;;;55.77;27.70;;;2.90;1.00;;;;;;5072001;28;20195;-83
2022/03/23 01:21:26;;;;;;;61.53;29.63;;;2.90;1.00;;;;;;5071859;28;20200;-83
2022/03/23 01:23:54;;;;;;;58.53;28.23;;;2.80;1.00;;;;;;5071521;28;20218;-83
2022/03/23 01:26:21;;;;;;;53.43;27.20;;;2.70;1.00;;;;;;5071859;28;20253;-83
2022/03/23 01:28:48;;;;;;;52.37;27.73;;;2.70;1.00;;;;;;5071419;28;20273;-83
2022/03/23 01:31:15;;;;;;;49.73;26.40;;;2.70;1.00;;;;;;5071853;28;20634;-83
2022/03/23 01:33:42;;;;;;;55.07;28.40;;;2.70;1.00;;;;;;5073542;28;20188;-83
2022/03/23 01:36:17;;;;;;;56.60;29.30;;;2.60;1.00;;;;;;5094476;28;20200;-87
2022/03/23 01:38:47;;;;;;;53.87;26.97;;;2.50;1.00;;;;;;5098475;28;20178;-86
2022/03/23 01:41:16;;;;;;;51.30;26.43;;;2.50;1.00;;;;;;5075001;28;20188;-83
2022/03/23 01:43:43;;;;;;;53.93;27.70;;;2.40;1.00;;;;;;5075364;28;20188;-82
2022/03/23 01:46:10;;;;;;;51.63;27.70;;;2.40;1.00;;;;;;5074952;28;20534;-85
2022/03/23 01:48:37;;;;;;;54.73;29.23;;;2.40;1.00;;;;;;5074898;28;20191;-84
2022/03/23 01:51:04;;;;;;;56.70;29.43;;;2.30;1.00;;;;;;5074858;28;20554;-84
2022/03/23 01:53:31;;;;;;;54.17;27.70;;;2.30;1.00;;;;;;5075551;28;20299;-84
2022/03/23 01:55:59;;;;;;;62.83;29.83;;;2.20;1.00;;;;;;5075298;28;20199;-84
2022/03/23 01:58:27;;;;;;;62.10;31.93;;;2.20;1.00;;;;;;5075329;28;20253;-84
2022/03/23 02:00:54;;;;;;;62.27;29.87;;;2.20;1.00;;;;;;5075185;28;20195;-84
2022/03/23 02:03:21;;;;;;;54.73;28.77;;;2.20;1.00;;;;;;5074987;28;20245;-85
2022/03/23 02:05:49;;;;;;;54.90;28.27;;;2.20;1.00;;;;;;5074888;28;20196;-84
2022/03/23 02:08:16;;;;;;;53.77;27.40;;;2.10;1.00;;;;;;5074962;28;20713;-84
2022/03/23 02:10:44;;;;;;;49.83;27.07;;;2.10;1.00;;;;;;5074495;28;20286;-84
2022/03/23 02:13:12;;;;;;;53.20;26.33;;;2.10;1.00;;;;;;5074762;28;20227;-84
2022/03/23 02:15:41;;;;;;;54.20;26.97;;;2.00;1.00;;;;;;5074618;28;20277;-84
2022/03/23 02:18:08;;;;;;;49.73;26.00;;;2.00;1.00;;;;;;5075843;28;20224;-83
2022/03/23 02:20:37;;;;;;;51.57;26.07;;;1.90;1.00;;;;;;5074706;28;20196;-82
2022/03/23 02:23:05;;;;;;;46.40;26.23;;;1.90;1.00;;;;;;5074490;28;20188;-83
2022/03/23 02:25:33;;;;;;;52.00;26.90;;;1.80;1.00;;;;;;5054194;28;20687;-83
2022/03/23 02:28:01;;;;;;;47.97;25.70;;;1.80;1.00;;;;;;5054544;28;20192;-83
2022/03/23 02:30:28;;;;;;;54.20;27.93;;;1.70;1.00;;;;;;5054150;28;20248;-83
2022/03/23 02:32:55;;;;;;;53.90;27.43;;;1.70;1.00;;;;;;5054592;28;20197;-83
2022/03/23 02:35:23;;;;;;;57.57;27.57;;;1.60;1.00;;;;;;5054415;28;20642;-83
2022/03/23 02:37:50;;;;;;;50.93;27.47;;;1.50;1.00;;;;;;5054194;28;20247;-83
2022/03/23 02:40:18;;;;;;;54.73;28.50;;;1.50;1.00;;;;;;5053947;28;20193;-83
2022/03/23 02:42:45;;;;;;;56.53;27.23;;;1.40;1.00;;;;;;5053895;28;20250;-83
2022/03/23 02:45:14;;;;;;;60.17;28.07;;;1.40;1.00;;;;;;5053719;28;20599;-83
2022/03/23 02:47:44;;;;;;;53.57;27.40;;;1.30;1.00;;;;;;5065290;28;20192;-85
2022/03/23 02:50:11;;;;;;;55.40;28.80;;;1.40;1.00;;;;;;5064486;28;20201;-84
2022/03/23 03:01:52;;;;;;;57.60;27.60;;;1.40;1.00;;;;;;5054099;28;20279;-84
2022/03/23 03:04:12;;;;;;;49.10;25.00;;;1.20;1.00;;;;;;5060832;28;20605;-84
2022/03/23 03:06:39;;;;;;;45.37;24.63;;;1.10;1.00;;;;;;5073393;28;20623;-84
2022/03/23 03:09:06;;;;;;;51.93;25.90;;;1.10;1.00;;;;;;5072350;28;20225;-84
2022/03/23 03:11:35;;;;;;;54.30;27.20;;;1.10;1.00;;;;;;5073739;28;20261;-84
2022/03/23 03:14:02;;;;;;;52.03;26.90;;;1.10;1.00;;;;;;5073605;28;20223;-84
2022/03/23 03:16:29;;;;;;;56.67;27.23;;;1.10;1.00;;;;;;5073687;28;20199;-84
2022/03/23 03:18:56;;;;;;;54.77;28.60;;;1.10;1.00;;;;;;5073328;28;20648;-84
2022/03/23 03:21:23;;;;;;;49.50;26.53;;;1.10;1.00;;;;;;5073680;28;20203;-84
2022/03/23 03:23:50;;;;;;;63.97;33.00;;;1.10;1.00;;;;;;5073103;28;20192;-84
2022/03/23 03:26:19;;;;;;;57.60;29.63;;;1.00;1.00;;;;;;5073100;28;20733;-84
2022/03/23 03:28:49;;;;;;;52.37;27.47;;;1.00;1.00;;;;;;5072939;28;20235;-84
2022/03/23 03:31:16;;;;;;;51.33;27.43;;;1.00;1.00;;;;;;5073413;28;20180;-84
2022/03/23 03:33:43;;;;;;;53.57;27.77;;;1.00;1.00;;;;;;5073348;28;20188;-84
2022/03/23 03:36:11;;;;;;;50.73;26.70;;;0.90;1.00;;;;;;5072911;28;20249;-84
2022/03/23 03:38:39;;;;;;;54.50;28.33;;;0.90;1.00;;;;;;5073147;28;20215;-84
2022/03/23 03:41:06;;;;;;;52.27;29.17;;;0.90;1.00;;;;;;5073112;28;20188;-84
2022/03/23 03:43:34;;;;;;;57.03;29.50;;;0.90;1.00;;;;;;5073220;28;20192;-83
2022/03/23 03:46:06;;;;;;;52.43;28.00;;;0.90;1.00;;;;;;5073027;28;20237;-84
2022/03/23 03:48:33;;;;;;;57.80;27.83;;;0.90;1.00;;;;;;5073104;28;20293;-84
2022/03/23 03:51:00;;;;;;;59.10;28.83;;;0.90;1.00;;;;;;5072901;28;20261;-84
2022/03/23 03:53:27;;;;;;;53.83;28.67;;;0.80;1.00;;;;;;5072915;28;20614;-84
2022/03/23 03:55:55;;;;;;;52.40;28.87;;;0.80;1.00;;;;;;5072067;28;20195;-83
2022/03/23 03:58:22;;;;;;;56.00;28.93;;;0.80;1.00;;;;;;5072705;28;20269;-83
2022/03/23 04:00:49;;;;;;;53.90;29.13;;;0.70;1.00;;;;;;5072594;28;20200;-84
2022/03/23 04:03:18;;;;;;;58.30;28.53;;;0.70;1.00;;;;;;5072729;28;20195;-84
2022/03/23 04:05:45;;;;;;;58.30;29.33;;;0.70;1.00;;;;;;5072868;28;20191;-84
2022/03/23 04:08:12;;;;;;;54.37;27.20;;;0.70;1.00;;;;;;5072463;28;20206;-84
2022/03/23 04:10:39;;;;;;;61.83;29.53;;;0.60;1.00;;;;;;5072753;28;20188;-84
2022/03/23 04:13:08;;;;;;;56.40;28.10;;;0.60;1.00;;;;;;5072682;28;20195;-85
2022/03/23 04:15:35;;;;;;;58.67;28.83;;;0.60;1.00;;;;;;5072799;28;20241;-84
2022/03/23 04:18:07;;;;;;;50.53;28.50;;;0.60;1.00;;;;;;5078669;28;20211;-85
2022/03/23 04:20:39;;;;;;;56.90;29.07;;;0.50;1.00;;;;;;5089860;28;20233;-85
2022/03/23 04:23:06;;;;;;;58.10;29.47;;;0.50;1.00;;;;;;5074647;28;20605;-84
2022/03/23 04:25:33;;;;;;;55.00;30.10;;;0.50;1.00;;;;;;5072537;28;20191;-84
2022/03/23 04:28:01;;;;;;;54.27;28.30;;;0.50;1.00;;;;;;5072446;28;20195;-85
2022/03/23 04:30:31;;;;;;;54.27;28.93;;;0.50;1.00;;;;;;5072666;28;20227;-85
2022/03/23 04:33:00;;;;;;;52.87;28.33;;;0.50;1.00;;;;;;5088435;28;20176;-86
2022/03/23 04:35:27;;;;;;;54.97;28.27;;;0.40;1.00;;;;;;5081945;28;20199;-84
2022/03/23 04:37:55;;;;;;;59.20;28.13;;;0.40;1.00;;;;;;5072059;28;20226;-84
2022/03/23 04:40:23;;;;;;;56.57;27.97;;;0.30;1.00;;;;;;5072349;28;20245;-84
2022/03/23 04:42:50;;;;;;;61.77;29.03;;;0.30;1.00;;;;;;5072036;28;20210;-84
2022/03/23 04:45:17;;;;;;;54.83;28.73;;;0.30;1.00;;;;;;5072054;28;20282;-84
2022/03/23 04:47:45;;;;;;;59.93;29.63;;;0.30;1.00;;;;;;5072419;28;20277;-84
2022/03/23 04:50:13;;;;;;;53.07;28.37;;;0.30;1.00;;;;;;5071970;28;20282;-84
2022/03/23 04:52:43;;;;;;;57.23;31.33;;;0.20;1.00;;;;;;5072053;28;20188;-84
2022/03/23 04:55:13;;;;;;;55.03;28.73;;;0.30;1.00;;;;;;5072011;28;20249;-84
2022/03/23 04:57:41;;;;;;;55.17;29.37;;;0.20;1.00;;;;;;5072107;28;20602;-84
2022/03/23 05:00:13;;;;;;;59.17;30.60;;;0.20;26.40;;;;;;5073566;28;20598;-86
2022/03/23 05:02:41;;;;;;;58.93;30.07;;;0.20;51.30;;;;;;5083735;28;20241;-87
2022/03/23 05:05:10;;;;;;;57.70;29.20;;;0.10;68.30;;;;;;5083917;28;20248;-86
2022/03/23 05:07:37;;;;;;;61.80;29.93;;;0.00;87.10;;;;;;5082282;28;20246;-84
2022/03/23 05:10:05;;;;;;;58.40;30.20;;;0.10;99.90;;;;;;5086131;28;20192;-84
2022/03/23 05:12:33;;;;;;;62.90;31.57;;;0.10;99.90;;;;;;5082308;28;20610;-85
2022/03/23 05:15:04;;;;;;;56.27;28.63;;;0.10;99.90;;;;;;5081245;28;20652;-83
2022/03/23 05:17:31;;;;;;;55.13;28.77;;;0.10;99.90;;;;;;5081722;28;20208;-85
2022/03/23 05:19:58;;;;;;;56.03;29.00;;;0.10;99.90;;;;;;5081026;28;20290;-84
2022/03/23 05:22:25;;;;;;;61.13;30.60;;;0.20;99.90;;;;;;5077093;28;20595;-85
2022/03/23 05:24:53;;;;;;;70.07;31.00;;;0.20;99.90;;;;;;5078551;28;20195;-84
2022/03/23 05:27:20;;;;;;;58.53;29.37;;;0.20;99.90;;;;;;5076479;28;20287;-85
2022/03/23 05:29:49;;;;;;;64.23;30.20;;;0.20;99.90;;;;;;5078305;28;20227;-84
2022/03/23 05:32:18;;;;;;;57.87;30.20;;;0.30;99.90;;;;;;5076566;28;20528;-84
2022/03/23 05:34:45;;;;;;;56.13;30.27;;;0.40;99.90;;;;;;5084300;28;20196;-85
2022/03/23 05:37:12;;;;;;;57.57;29.43;;;0.40;99.90;;;;;;5077954;28;20241;-85
2022/03/23 05:39:47;;;;;;;63.87;32.30;;;0.50;99.90;;;;;;5076828;28;20253;-86
2022/03/23 05:42:14;;;;;;;57.83;30.00;;;0.60;99.90;;;;;;5078089;28;20254;-84
2022/03/23 05:44:42;;;;;;;56.37;29.40;;;0.70;99.90;;;;;;5081490;28;20200;-86
2022/03/23 05:47:10;;;;;;;54.23;30.63;;;0.90;99.90;;;;;;5077430;28;20192;-85
2022/03/23 05:49:37;;;;;;;54.50;30.20;;;1.40;1.00;;;;;;5076950;28;20652;-84
2022/03/23 05:52:05;;;;;;;50.30;25.40;;;2.30;1.00;;;;;;5078927;28;20254;-84
2022/03/23 05:54:32;;;;;;;45.17;25.40;;;3.50;1.00;;;;;;5076292;28;20196;-85
2022/03/23 05:57:02;;;;;;;45.43;25.53;;;4.40;1.00;;;;;;5079344;28;20265;-86
2022/03/23 05:59:31;;;;;;;54.77;26.10;;;5.30;1.00;;;;;;5076396;28;20769;-88
2022/03/23 06:01:58;;;;;;;44.57;24.93;;;6.30;99.90;;;;;;5081708;28;20655;-84
2022/03/23 06:04:27;;;;;;;48.87;27.03;;;7.40;99.90;;;;;;5079606;28;20201;-87
2022/03/23 06:06:54;;;;;;;48.77;26.00;;;8.50;99.90;;;;;;5079408;28;20239;-84
2022/03/23 06:09:21;;;;;;;48.43;26.63;;;9.30;27.40;;;;;;5082001;28;20243;-85
2022/03/23 06:11:51;;;;;;;45.80;27.73;;;10.10;1.00;;;;;;5083927;28;20201;-87
2022/03/23 06:14:18;;;;;;;47.47;28.87;;;10.80;1.00;;;;;;5077733;28;20199;-84
2022/03/23 06:16:45;;;;;;;45.80;27.87;;;11.40;1.00;;;;;;5083092;28;20202;-88
2022/03/23 06:19:13;;;;;;;44.73;26.97;;;12.00;1.00;;;;;;5078128;28;20218;-83
2022/03/23 06:21:42;;;;;;;46.07;27.70;;;12.50;1.00;;;;;;5081270;28;20210;-84
2022/03/23 06:24:15;;;;;;;52.80;28.43;;;13.00;1.00;;;;;;5082662;28;20265;-88
2022/03/23 06:26:42;;;;;;;45.45;29.70;;;13.40;1.00;;;;;;5083075;28;20177;-85
2022/03/23 06:29:09;;;;;;;47.63;30.42;;;14.20;1.00;;;;;;5078338;28;20227;-84
2022/03/23 06:31:36;;;;;;;55.92;36.10;;;14.90;1.00;;;;;;5076703;28;20195;-83
2022/03/23 06:34:04;;;;;;;51.00;31.67;;;15.50;1.00;;;;;;5080923;28;20192;-83
2022/03/23 06:36:31;;;;;;;45.72;29.95;;;16.20;1.00;;;;;;5079239;28;20200;-83
2022/03/23 06:39:02;;;;;;;48.05;29.83;;;17.00;1.00;;;;;;5079246;28;20565;-85
2022/03/23 06:41:30;;;;;;;49.95;31.55;;;17.70;1.00;;;;;;5082623;28;20199;-85
2022/03/23 06:43:57;;;;;;;51.42;30.65;;;18.30;1.00;;;;;;5077032;28;20547;-84
2022/03/23 06:46:24;;;;;;;50.28;29.85;;;18.70;1.00;;;;;;5075590;28;20219;-84
2022/03/23 06:49:00;;;;;;;49.15;30.85;;;19.20;1.00;;;;;;5077243;28;20672;-86
2022/03/23 06:51:28;;;;;;;64.00;34.10;;;19.90;1.00;;;;;;5076142;28;20191;-83
2022/03/23 06:53:55;;;;;;;78.18;36.03;;;20.60;1.00;;;;;;5075311;28;20188;-83
2022/03/23 06:56:26;;;;;;;102.90;41.75;;;21.40;1.00;;;;;;5075123;28;20196;-84
2022/03/23 06:58:53;;;;;;;102.20;41.08;;;22.20;1.00;;;;;;5074902;28;20211;-84
2022/03/23 07:01:20;;;;;;;91.45;41.85;;;22.80;1.00;;;;;;5074728;28;20203;-84
2022/03/23 07:03:53;;;;;;;88.65;43.17;;;23.50;1.00;;;;;;5078717;28;20678;-84
2022/03/23 07:06:20;;;;;;;89.38;43.05;;;24.10;1.00;;;;;;5075735;28;20634;-85
2022/03/23 07:11:33;;;;;;;78.38;40.58;;;25.20;1.00;;;;;;5080196;28;20252;-86
2022/03/23 07:14:06;;;;;;;82.10;40.83;;;25.90;1.00;;;;;;5076404;28;20188;-88
2022/03/23 07:16:35;;;;;;;91.70;40.60;;;26.40;1.00;;;;;;5073919;28;20179;-85
2022/03/23 07:19:04;;;;;;;67.88;39.83;;;26.90;1.00;;;;;;5079190;28;20196;-83
2022/03/23 07:21:32;;;;;;;100.97;41.75;;;27.50;1.00;;;;;;5082544;28;20207;-85
2022/03/23 07:23:59;;;;;;;78.80;40.85;;;27.90;1.00;;;;;;5076901;28;20202;-86
2022/03/23 07:26:26;;;;;;;79.72;40.38;;;28.30;1.00;;;;;;5080654;28;20196;-86
2022/03/23 07:29:01;;;;;;;80.25;41.22;;;;;;;;;;5074863;28;20692;-85
2022/03/23 07:31:28;;;;;;;93.30;43.00;;;29.10;1.00;;;;;;5073674;28;20437;-84
2022/03/23 07:33:57;;;;;;;66.57;42.33;;;29.50;1.00;;;;;;5079201;28;20257;-85
2022/03/23 07:36:30;;;;;;;65.85;38.67;;;29.90;1.00;;;;;;5075614;28;20279;-86
2022/03/23 07:38:58;;;;;;;51.75;33.13;;;30.20;1.00;;;;;;5075548;28;20230;-82
2022/03/23 07:41:25;;;;;;;47.08;33.83;;;30.10;1.00;;;;;;5076271;28;20188;-84
2022/03/23 07:43:53;;;;;;;55.67;35.75;;;29.60;1.00;;;;;;5076439;28;20184;-83
2022/03/23 07:46:21;;;;;;;55.08;34.88;;;29.30;1.00;;;;;;5075295;28;20610;-83
2022/03/23 07:48:48;;;;;;;51.95;35.35;;;29.00;1.00;;;;;;5075108;28;20976;-84
2022/03/23 07:51:15;;;;;;;56.70;34.72;;;29.00;1.00;;;;;;5077601;28;20188;-84
2022/03/23 07:53:45;;;;;;;53.38;34.53;;;29.10;1.00;;;;;;5074451;28;20192;-85
2022/03/23 07:56:12;;;;;;;64.25;36.20;;;29.00;1.00;;;;;;5073117;28;20230;-84
2022/03/23 07:58:39;;;;;;;63.08;38.85;;;29.20;1.00;;;;;;5073579;28;20628;-83
2022/03/23 08:01:10;;;;;;;47.85;34.45;;;29.50;1.00;;;;;;5074172;28;20245;-83
2022/03/23 08:03:37;;;;;;;51.35;34.00;;;30.10;1.00;;;;;;5073850;28;20184;-84
2022/03/23 08:06:05;;;;;;;45.20;33.05;;;30.40;1.00;;;;;;5073655;28;20195;-86
2022/03/23 08:08:32;;;;;;;42.28;31.95;;;30.50;1.00;;;;;;5074168;28;20216;-84
2022/03/23 08:10:59;;;;;;;43.25;31.25;;;30.60;1.00;;;;;;5077017;28;20192;-85
2022/03/23 08:13:36;;;;;;;;;;;;;;;;;;;;;
2022/03/23 08:16:04;;;;;;;43.95;31.05;;;30.90;1.00;;;;;;5071708;28;20192;-84
2022/03/23 08:18:32;;;;;;;44.63;31.48;;;31.10;1.00;;;;;;5077050;28;20283;-84
2022/03/23 08:21:01;;;;;;;37.85;30.70;;;31.00;1.00;;;;;;5079378;28;20246;-84
2022/03/23 08:23:30;;;;;;;43.72;31.90;;;31.10;1.00;;;;;;5079846;28;20188;-83
2022/03/23 08:25:57;;;;;;;44.38;31.35;;;31.50;1.00;;;;;;5079851;28;20245;-84
2022/03/23 08:28:39;;;;;;;45.85;31.30;;;31.80;1.00;;;;;;5074908;28;20216;-89
2022/03/23 08:31:11;;;;;;;44.22;31.77;;;32.00;1.00;;;;;;5061438;28;20185;-86
2022/03/23 08:33:43;;;;;;;42.97;31.73;;;31.80;1.00;;;;;;5075219;28;20200;-85
2022/03/23 08:36:10;;;;;;;45.50;33.33;;;31.50;1.00;;;;;;5078009;28;20283;-83
2022/03/23 08:38:38;;;;;;;46.03;33.08;;;31.30;1.00;;;;;;5075751;28;20253;-86
2022/03/23 08:41:06;;;;;;;44.67;32.95;;;30.80;1.00;;;;;;5078887;28;20523;-84
2022/03/23 08:43:33;;;;;;;44.80;33.72;;;29.90;1.00;;;;;;5077979;28;20605;-83
2022/03/23 08:46:04;;;;;;;48.47;32.70;;;29.40;1.00;;;;;;5075414;28;20784;-83
2022/03/23 08:48:31;;;;;;;47.42;32.72;;;29.00;1.00;;;;;;5079163;28;20216;-83
2022/03/23 08:50:59;;;;;;;40.55;30.85;;;28.90;1.00;;;;;;5074686;28;20195;-84
2022/03/23 08:53:29;;;;;;;40.05;32.15;;;28.60;1.00;;;;;;5073775;28;20193;-84
2022/03/23 08:55:57;;;;;;;40.47;32.17;;;28.60;1.00;;;;;;5074796;28;20592;-85
2022/03/23 08:58:24;;;;;;;42.33;31.90;;;28.60;1.00;;;;;;5073332;28;20250;-84
2022/03/23 09:00:51;;;;;;;41.60;31.85;;;28.80;1.00;;;;;;5076452;28;20661;-84
2022/03/23 09:03:18;;;;;;;41.35;30.77;;;29.00;1.00;;;;;;5073542;28;20534;-84
2022/03/23 09:05:45;;;;;;;39.90;31.55;;;28.80;1.00;;;;;;5074385;28;20249;-84
2022/03/23 09:08:17;;;;;;;39.70;32.17;;;28.60;1.00;;;;;;5076036;28;20204;-88
2022/03/23 09:10:44;;;;;;;39.00;30.73;;;28.30;1.00;;;;;;5072959;28;20591;-83
2022/03/23 09:13:11;;;;;;;38.58;29.90;;;28.10;1.00;;;;;;5075067;28;20193;-84
2022/03/23 09:15:38;;;;;;;39.55;29.70;;;27.80;1.00;;;;;;5072378;28;20227;-84
2022/03/23 09:18:07;;;;;;;39.85;30.15;;;27.80;1.00;;;;;;5075468;28;20199;-84
2022/03/23 09:20:35;;;;;;;39.40;30.55;;;27.70;1.00;;;;;;5082518;28;20577;-86
2022/03/23 09:23:09;;;;;;;41.97;29.40;;;27.80;1.00;;;;;;5075873;28;20573;-85
2022/03/23 09:25:37;;;;;;;39.55;29.75;;;28.00;1.00;;;;;;5077926;28;20188;-84
2022/03/23 09:28:04;;;;;;;34.25;28.42;;;28.20;1.00;;;;;;5081686;28;20193;-85
2022/03/23 09:30:32;;;;;;;36.25;28.63;;;28.70;1.00;;;;;;5076403;28;20224;-84
2022/03/23 09:33:00;;;;;;;41.42;29.00;;;29.00;1.00;;;;;;5074543;28;20189;-83
2022/03/23 09:35:28;;;;;;;40.80;29.55;;;29.30;1.00;;;;;;5081003;28;20199;-84
2022/03/23 09:37:56;;;;;;;42.67;30.27;;;29.30;1.00;;;;;;5081640;28;20183;-85
2022/03/23 09:40:25;;;;;;;40.30;30.02;;;29.30;1.00;;;;;;5078316;28;20200;-88
2022/03/23 09:42:56;;;;;;;40.50;30.17;;;29.10;1.00;;;;;;5077896;28;20684;-85
2022/03/23 09:45:44;;;;;;;36.95;29.10;;;29.10;1.00;;;;;;5074853;28;20284;-83
2022/03/23 09:48:12;;;;;;;37.92;29.00;;;29.00;1.00;;;;;;5079896;28;20259;-84
2022/03/23 09:50:42;;;;;;;40.53;30.58;;;29.00;1.00;;;;;;5080360;28;20611;-83
2022/03/23 09:53:09;;;;;;;51.55;31.88;;;29.00;1.00;;;;;;5074911;28;20653;-83
2022/03/23 09:55:37;;;;;;;44.78;29.92;;;28.70;1.00;;;;;;5083828;28;20192;-84
2022/03/23 09:58:07;;;;;;;41.20;30.80;;;28.40;1.00;;;;;;5076309;28;20290;-83
2022/03/23 10:00:35;;;;;;;41.72;31.48;;;28.10;1.00;;;;;;5076585;28;20249;-83
2022/03/23 10:03:44;;;;;;;42.28;30.50;;;27.70;1.00;;;;;;5077560;28;20253;-83
2022/03/23 10:06:44;;;;;;;40.10;30.20;;;27.30;1.00;;;;;;5084438;28;20173;-84
2022/03/23 10:09:59;;;;;;;43.13;31.40;;;27.00;1.00;;;;;;5075619;28;20199;-84
2022/03/23 10:13:03;;;;;;;44.33;31.23;;;26.50;1.00;;;;;;5041631;28;20188;-82
2022/03/23 10:16:09;;;;;;;41.70;30.92;;;26.00;1.00;;;;;;5075354;28;20192;-82
2022/03/23 10:18:58;;;;;;;41.50;29.70;;;25.70;1.00;;;;;;5068577;28;20261;-83
2022/03/23 10:21:26;;;;;;;45.15;30.95;;;25.40;1.00;;;;;;5074702;28;20586;-83
2022/03/23 10:24:31;;;;;;;39.85;29.45;;;25.10;1.00;;;;;;5075728;28;20196;-83
2022/03/23 10:27:02;;;;;;;45.15;31.35;;;24.80;1.00;;;;;;5075298;28;20620;-86
2022/03/23 10:29:31;;;;;;;46.17;30.52;;;24.60;1.00;;;;;;5074658;28;20228;-83
2022/03/23 10:32:02;;;;;;;45.05;29.75;;;24.50;1.00;;;;;;5077201;28;20234;-83
2022/03/23 10:34:48;;;;;;;41.13;29.50;;;24.30;1.00;;;;;;5068092;28;20254;-83
2022/03/23 10:37:21;;;;;;;39.63;28.58;;;24.20;1.00;;;;;;5074607;28;20188;-84
2022/03/23 10:39:50;;;;;;;38.30;27.98;;;24.00;1.00;;;;;;5076998;28;20199;-88
2022/03/23 10:42:20;;;;;;;40.42;27.10;;;23.90;1.00;;;;;;5075097;28;20196;-84
2022/03/23 10:44:48;;;;;;;35.00;26.63;;;23.70;1.00;;;;;;5078681;28;20200;-83
2022/03/23 10:47:25;;;;;;;40.33;25.35;;;23.60;1.00;;;;;;5079160;28;20192;-83
2022/03/23 10:49:54;;;;;;;34.17;24.52;;;23.40;1.00;;;;;;5075938;28;20218;-83
2022/03/23 10:52:22;;;;;;;31.40;23.98;;;23.20;1.00;;;;;;5072136;28;20196;-83
2022/03/23 10:54:57;;;;;;;32.83;23.77;;;23.20;1.00;;;;;;5056823;28;20193;-80
2022/03/23 10:58:08;;;;;;;35.00;22.75;;;23.10;1.00;;;;;;5066469;28;20210;-82
2022/03/23 11:00:38;;;;;;;33.20;22.40;;;23.10;1.00;;;;;;5073393;28;20648;-83
2022/03/23 11:03:08;;;;;;;33.70;22.52;;;23.00;1.00;;;;;;5062793;28;20258;-84
2022/03/23 11:05:38;;;;;;;30.92;21.95;;;23.00;1.00;;;;;;5062325;28;20216;-83
2022/03/23 11:08:08;;;;;;;28.10;19.10;;;22.90;1.00;;;;;;5053598;28;20182;-83
2022/03/23 11:16:07;;;;;;;27.83;19.75;;;22.60;1.00;;;;;;5055768;28;20192;-83
2022/03/23 11:18:34;;;;;;;26.35;18.45;;;22.50;1.00;;;;;;5060192;28;20209;-83
2022/03/23 11:21:02;;;;;;;26.13;19.15;;;22.30;1.00;;;;;;5053087;28;20247;-83
2022/03/23 11:23:31;;;;;;;27.38;19.13;;;22.00;1.00;;;;;;5064213;28;20258;-83
2022/03/23 11:26:01;;;;;;;23.50;17.10;;;21.90;1.00;;;;;;5059248;28;20200;-84
2022/03/23 11:28:29;;;;;;;23.30;17.20;;;21.90;1.00;;;;;;5055866;28;20237;-82
2022/03/23 11:30:57;;;;;;;22.40;17.33;;;21.80;1.00;;;;;;5066061;28;20288;-83
2022/03/23 11:33:26;;;;;;;24.15;16.73;;;21.70;1.00;;;;;;5074457;28;20254;-82
2022/03/23 11:35:54;;;;;;;30.27;17.80;;;21.60;1.00;;;;;;5072388;28;20202;-82
2022/03/23 11:38:25;;;;;;;24.63;17.83;;;21.60;1.00;;;;;;5055732;28;20586;-85
2022/03/23 11:40:56;;;;;;;25.13;17.05;;;21.50;1.00;;;;;;5058833;28;20186;-86
2022/03/23 11:43:32;;;;;;;22.80;17.10;;;21.40;1.00;;;;;;5070964;28;20198;-87
2022/03/23 11:46:00;;;;;;;23.73;17.50;;;21.20;1.00;;;;;;5079671;28;20175;-83
2022/03/23 11:48:52;;;;;;;26.42;18.02;;;21.10;1.00;;;;;;5077597;28;20249;-87
2022/03/23 11:51:41;;;;;;;27.15;17.67;;;21.00;1.00;;;;;;5090502;28;20212;-82
2022/03/23 11:54:17;;;;;;;26.92;18.35;;;21.00;1.00;;;;;;5052993;28;20210;-82
2022/03/23 11:56:55;;;;;;;24.05;17.70;;;21.00;1.00;;;;;;5075124;28;20214;-83
2022/03/23 11:59:24;;;;;;;26.73;18.27;;;21.00;1.00;;;;;;5093545;28;20179;-85
2022/03/23 12:01:58;;;;;;;23.98;17.92;;;21.00;1.00;;;;;;5082461;28;20180;-84
2022/03/23 12:04:35;;;;;;;23.58;17.33;;;21.00;1.00;;;;;;5095790;28;20192;-88
2022/03/23 12:07:12;;;;;;;24.90;17.65;;;21.10;1.00;;;;;;5085861;28;20551;-85
2022/03/23 12:09:42;;;;;;;24.20;17.83;;;21.10;1.00;;;;;;5071946;28;20609;-83
2022/03/23 12:12:13;;;;;;;26.75;18.73;;;21.20;1.00;;;;;;5072646;28;20242;-83
2022/03/23 12:14:42;;;;;;;25.85;19.42;;;21.20;1.00;;;;;;5063385;28;20289;-86
2022/03/23 12:17:52;;;;;;;26.55;18.00;;;21.30;1.00;;;;;;5065241;28;20253;-84
2022/03/23 12:20:28;;;;;;;23.17;17.17;;;21.20;1.00;;;;;;5066280;28;20719;-84
2022/03/23 12:23:31;;;;;;;28.58;18.02;;;21.20;1.00;;;;;;5069808;28;20192;-82
2022/03/23 12:26:07;;;;;;;24.00;17.63;;;21.20;1.00;;;;;;5079973;28;20223;-83
2022/03/23 12:28:44;;;;;;;26.60;17.65;;;21.10;1.00;;;;;;5089020;28;20180;-88
2022/03/23 12:31:14;;;;;;;25.92;18.02;;;21.10;1.00;;;;;;5086789;28;20239;-86
2022/03/23 12:34:11;;;;;;;23.00;17.48;;;21.20;1.00;;;;;;5077229;28;20294;-82
2022/03/23 12:36:59;;;;;;;27.70;17.83;;;21.10;1.00;;;;;;5095315;28;20196;-88
2022/03/23 12:39:42;;;;;;;25.77;17.95;;;21.00;1.00;;;;;;5076076;28;20215;-83
2022/03/23 12:42:27;;;;;;;28.23;18.42;;;20.90;1.00;;;;;;5071859;28;20220;-84
2022/03/23 12:45:12;;;;;;;27.85;17.85;;;20.70;1.00;;;;;;5082226;28;20252;-84
2022/03/23 12:47:59;;;;;;;26.05;18.17;;;20.70;1.00;;;;;;5072412;28;20276;-82
2022/03/23 12:58:51;;;;;;;26.02;19.23;;;20.90;1.00;;;;;;5078364;28;20208;-83
2022/03/23 13:01:36;;;;;;;36.47;20.50;;;20.90;1.00;;;;;;5083716;28;20603;-88
2022/03/23 13:04:05;;;;;;;30.30;19.45;;;20.90;1.00;;;;;;5080094;28;20205;-83
2022/03/23 13:06:42;;;;;;;31.25;20.63;;;20.80;1.00;;;;;;5081667;28;20200;-87
2022/03/23 13:09:16;;;;;;;29.25;19.85;;;20.80;1.00;;;;;;5077206;28;20180;-86
2022/03/23 13:11:58;;;;;;;26.60;19.20;;;20.80;1.00;;;;;;5077477;28;20274;-82
2022/03/23 13:14:29;;;;;;;27.52;18.48;;;20.70;1.00;;;;;;5075781;28;20267;-82
2022/03/23 13:16:58;;;;;;;26.17;18.73;;;20.70;1.00;;;;;;5075926;28;20200;-82
2022/03/23 13:19:26;;;;;;;27.08;18.33;;;20.70;1.00;;;;;;5074807;28;20291;-84
2022/03/23 13:21:55;;;;;;;30.33;19.55;;;20.70;1.00;;;;;;5074376;28;20237;-83
2022/03/23 13:24:28;;;;;;;27.42;19.15;;;20.70;1.00;;;;;;5085142;28;20267;-87